sensor_id;sensor_type;location;lat;lon;timestamp;P1;durP1;ratioP1;P2;durP2;ratioP2
9178;SDS011;4624;48.126;11.546;2022-10-16T00:01:20;1.53;;;1.23;;
9178;SDS011;4624;48.126;11.546;2022-10-16T00:03:48;2.23;;;1.10;;
9178;SDS011;4624;48.126;11.546;2022-10-16T00:06:18;2.83;;;1.10;;
9178;SDS011;4624;48.126;11.546;2022-10-16T00:08:46;0.80;;;0.80;;
9178;SDS011;4624;48.126;11.546;2022-10-16T00:11:13;1.53;;;1.00;;
9178;SDS011;4624;48.126;11.546;2022-10-16T00:13:42;2.03;;;1.10;;
9178;SDS011;4624;48.126;11.546;2022-10-16T00:16:10;2.27;;;1.00;;
9178;SDS011;4624;48.126;11.546;2022-10-16T00:18:38;2.60;;;1.47;;
9178;SDS011;4624;48.126;11.546;2022-10-16T00:21:06;6.53;;;2.17;;
9178;SDS011;4624;48.126;11.546;2022-10-16T00:23:36;2.90;;;1.43;;
9178;SDS011;4624;48.126;11.546;2022-10-16T00:26:05;1.20;;;1.00;;
9178;SDS011;4624;48.126;11.546;2022-10-16T00:28:33;1.50;;;1.00;;
9178;SDS011;4624;48.126;11.546;2022-10-16T00:31:02;1.67;;;0.90;;
9178;SDS011;4624;48.126;11.546;2022-10-16T00:33:30;1.30;;;0.97;;
9178;SDS011;4624;48.126;11.546;2022-10-16T00:35:57;1.27;;;1.00;;
9178;SDS011;4624;48.126;11.546;2022-10-16T00:38:24;4.13;;;1.03;;
9178;SDS011;4624;48.126;11.546;2022-10-16T00:40:52;2.13;;;1.13;;
9178;SDS011;4624;48.126;11.546;2022-10-16T00:43:32;1.97;;;1.27;;
9178;SDS011;4624;48.126;11.546;2022-10-16T00:46:07;2.27;;;1.00;;
9178;SDS011;4624;48.126;11.546;2022-10-16T00:48:39;1.20;;;1.10;;
9178;SDS011;4624;48.126;11.546;2022-10-16T00:51:06;2.47;;;0.87;;
9178;SDS011;4624;48.126;11.546;2022-10-16T00:53:34;3.60;;;0.97;;
9178;SDS011;4624;48.126;11.546;2022-10-16T00:56:02;1.10;;;1.00;;
9178;SDS011;4624;48.126;11.546;2022-10-16T00:58:29;2.73;;;1.20;;
9178;SDS011;4624;48.126;11.546;2022-10-16T01:00:56;1.53;;;1.07;;
9178;SDS011;4624;48.126;11.546;2022-10-16T01:03:24;5.37;;;1.40;;
9178;SDS011;4624;48.126;11.546;2022-10-16T01:05:55;5.07;;;1.30;;
9178;SDS011;4624;48.126;11.546;2022-10-16T01:08:34;1.30;;;1.00;;
9178;SDS011;4624;48.126;11.546;2022-10-16T01:11:12;2.00;;;1.10;;
9178;SDS011;4624;48.126;11.546;2022-10-16T01:13:46;2.73;;;1.50;;
9178;SDS011;4624;48.126;11.546;2022-10-16T01:16:18;6.30;;;1.20;;
9178;SDS011;4624;48.126;11.546;2022-10-16T01:18:52;4.10;;;1.20;;
9178;SDS011;4624;48.126;11.546;2022-10-16T01:21:24;1.43;;;1.23;;
9178;SDS011;4624;48.126;11.546;2022-10-16T01:23:56;2.60;;;0.90;;
9178;SDS011;4624;48.126;11.546;2022-10-16T01:26:37;1.47;;;1.03;;
9178;SDS011;4624;48.126;11.546;2022-10-16T01:29:33;2.13;;;1.10;;
9178;SDS011;4624;48.126;11.546;2022-10-16T01:32:05;1.90;;;1.10;;
9178;SDS011;4624;48.126;11.546;2022-10-16T01:34:38;1.00;;;0.90;;
9178;SDS011;4624;48.126;11.546;2022-10-16T01:37:13;3.13;;;0.90;;
9178;SDS011;4624;48.126;11.546;2022-10-16T01:39:42;1.97;;;0.80;;
9178;SDS011;4624;48.126;11.546;2022-10-16T01:42:14;0.90;;;0.90;;
9178;SDS011;4624;48.126;11.546;2022-10-16T01:44:45;5.60;;;0.90;;
9178;SDS011;4624;48.126;11.546;2022-10-16T01:47:13;2.03;;;0.97;;
9178;SDS011;4624;48.126;11.546;2022-10-16T01:49:42;3.13;;;1.20;;
9178;SDS011;4624;48.126;11.546;2022-10-16T01:52:12;1.60;;;1.13;;
9178;SDS011;4624;48.126;11.546;2022-10-16T01:54:41;3.07;;;1.37;;
9178;SDS011;4624;48.126;11.546;2022-10-16T01:57:13;1.53;;;1.10;;
9178;SDS011;4624;48.126;11.546;2022-10-16T01:59:43;3.80;;;1.27;;
9178;SDS011;4624;48.126;11.546;2022-10-16T02:02:12;4.77;;;1.30;;
9178;SDS011;4624;48.126;11.546;2022-10-16T02:04:42;3.80;;;1.10;;
9178;SDS011;4624;48.126;11.546;2022-10-16T02:07:12;1.30;;;1.20;;
9178;SDS011;4624;48.126;11.546;2022-10-16T02:09:39;1.30;;;1.20;;
9178;SDS011;4624;48.126;11.546;2022-10-16T02:12:09;2.10;;;1.37;;
9178;SDS011;4624;48.126;11.546;2022-10-16T02:14:41;1.30;;;1.00;;
9178;SDS011;4624;48.126;11.546;2022-10-16T02:17:11;2.67;;;1.10;;
9178;SDS011;4624;48.126;11.546;2022-10-16T02:19:40;1.60;;;1.00;;
9178;SDS011;4624;48.126;11.546;2022-10-16T02:22:09;1.33;;;1.00;;
9178;SDS011;4624;48.126;11.546;2022-10-16T02:24:43;3.83;;;1.03;;
9178;SDS011;4624;48.126;11.546;2022-10-16T02:27:17;1.20;;;0.90;;
9178;SDS011;4624;48.126;11.546;2022-10-16T02:29:52;2.10;;;0.80;;
9178;SDS011;4624;48.126;11.546;2022-10-16T02:32:24;0.90;;;0.70;;
9178;SDS011;4624;48.126;11.546;2022-10-16T02:34:53;0.67;;;0.67;;
9178;SDS011;4624;48.126;11.546;2022-10-16T02:37:20;1.53;;;0.60;;
9178;SDS011;4624;48.126;11.546;2022-10-16T02:39:47;0.50;;;0.50;;
9178;SDS011;4624;48.126;11.546;2022-10-16T02:42:14;2.07;;;0.63;;
9178;SDS011;4624;48.126;11.546;2022-10-16T02:44:43;1.67;;;0.53;;
9178;SDS011;4624;48.126;11.546;2022-10-16T02:47:11;2.30;;;0.70;;
9178;SDS011;4624;48.126;11.546;2022-10-16T02:49:38;1.00;;;0.60;;
9178;SDS011;4624;48.126;11.546;2022-10-16T02:52:05;2.73;;;0.80;;
9178;SDS011;4624;48.126;11.546;2022-10-16T02:54:32;3.03;;;0.60;;
9178;SDS011;4624;48.126;11.546;2022-10-16T02:56:58;2.30;;;0.80;;
9178;SDS011;4624;48.126;11.546;2022-10-16T02:59:25;0.80;;;0.60;;
9178;SDS011;4624;48.126;11.546;2022-10-16T03:01:52;1.50;;;0.70;;
9178;SDS011;4624;48.126;11.546;2022-10-16T03:04:20;0.93;;;0.50;;
9178;SDS011;4624;48.126;11.546;2022-10-16T03:06:47;1.57;;;0.70;;
9178;SDS011;4624;48.126;11.546;2022-10-16T03:09:13;3.03;;;0.60;;
9178;SDS011;4624;48.126;11.546;2022-10-16T03:11:40;1.17;;;0.77;;
9178;SDS011;4624;48.126;11.546;2022-10-16T03:14:07;2.03;;;0.80;;
9178;SDS011;4624;48.126;11.546;2022-10-16T03:16:34;1.90;;;0.63;;
9178;SDS011;4624;48.126;11.546;2022-10-16T03:19:00;0.83;;;0.70;;
9178;SDS011;4624;48.126;11.546;2022-10-16T03:21:28;1.37;;;1.10;;
9178;SDS011;4624;48.126;11.546;2022-10-16T03:23:55;4.50;;;1.27;;
9178;SDS011;4624;48.126;11.546;2022-10-16T03:26:22;0.87;;;0.77;;
9178;SDS011;4624;48.126;11.546;2022-10-16T03:28:49;1.67;;;0.83;;
9178;SDS011;4624;48.126;11.546;2022-10-16T03:31:15;1.53;;;0.80;;
9178;SDS011;4624;48.126;11.546;2022-10-16T03:33:42;0.60;;;0.60;;
9178;SDS011;4624;48.126;11.546;2022-10-16T03:36:09;1.33;;;0.70;;
9178;SDS011;4624;48.126;11.546;2022-10-16T03:38:37;1.90;;;0.63;;
9178;SDS011;4624;48.126;11.546;2022-10-16T03:41:04;0.97;;;0.70;;
9178;SDS011;4624;48.126;11.546;2022-10-16T03:43:32;0.77;;;0.60;;
9178;SDS011;4624;48.126;11.546;2022-10-16T03:45:59;0.80;;;0.70;;
9178;SDS011;4624;48.126;11.546;2022-10-16T03:48:26;0.60;;;0.60;;
9178;SDS011;4624;48.126;11.546;2022-10-16T03:50:53;0.60;;;0.60;;
9178;SDS011;4624;48.126;11.546;2022-10-16T03:53:19;0.73;;;0.60;;
9178;SDS011;4624;48.126;11.546;2022-10-16T03:55:48;1.27;;;0.63;;
9178;SDS011;4624;48.126;11.546;2022-10-16T03:58:14;1.57;;;0.57;;
9178;SDS011;4624;48.126;11.546;2022-10-16T04:00:41;0.57;;;0.57;;
9178;SDS011;4624;48.126;11.546;2022-10-16T04:03:09;2.73;;;0.70;;
9178;SDS011;4624;48.126;11.546;2022-10-16T04:05:36;0.50;;;0.50;;
9178;SDS011;4624;48.126;11.546;2022-10-16T04:08:03;3.40;;;1.67;;
9178;SDS011;4624;48.126;11.546;2022-10-16T04:10:30;1.33;;;0.87;;
9178;SDS011;4624;48.126;11.546;2022-10-16T04:12:58;2.10;;;0.80;;
9178;SDS011;4624;48.126;11.546;2022-10-16T04:15:25;2.40;;;0.80;;
9178;SDS011;4624;48.126;11.546;2022-10-16T04:17:52;0.53;;;0.53;;
9178;SDS011;4624;48.126;11.546;2022-10-16T04:20:19;1.13;;;0.43;;
9178;SDS011;4624;48.126;11.546;2022-10-16T04:22:45;1.47;;;0.50;;
9178;SDS011;4624;48.126;11.546;2022-10-16T04:25:12;0.90;;;0.60;;
9178;SDS011;4624;48.126;11.546;2022-10-16T04:27:39;0.60;;;0.60;;
9178;SDS011;4624;48.126;11.546;2022-10-16T04:30:08;2.13;;;0.60;;
9178;SDS011;4624;48.126;11.546;2022-10-16T04:32:35;0.87;;;0.50;;
9178;SDS011;4624;48.126;11.546;2022-10-16T04:35:02;0.50;;;0.50;;
9178;SDS011;4624;48.126;11.546;2022-10-16T04:37:29;2.80;;;0.53;;
9178;SDS011;4624;48.126;11.546;2022-10-16T04:39:55;1.07;;;0.70;;
9178;SDS011;4624;48.126;11.546;2022-10-16T04:42:22;2.13;;;1.00;;
9178;SDS011;4624;48.126;11.546;2022-10-16T04:44:49;0.80;;;0.80;;
9178;SDS011;4624;48.126;11.546;2022-10-16T04:47:17;2.00;;;0.60;;
9178;SDS011;4624;48.126;11.546;2022-10-16T04:49:44;0.97;;;0.93;;
9178;SDS011;4624;48.126;11.546;2022-10-16T04:52:11;1.00;;;0.90;;
9178;SDS011;4624;48.126;11.546;2022-10-16T04:54:37;1.17;;;0.77;;
9178;SDS011;4624;48.126;11.546;2022-10-16T04:57:04;0.70;;;0.70;;
9178;SDS011;4624;48.126;11.546;2022-10-16T04:59:31;1.20;;;0.60;;
9178;SDS011;4624;48.126;11.546;2022-10-16T05:01:57;1.63;;;0.70;;
9178;SDS011;4624;48.126;11.546;2022-10-16T05:04:26;1.97;;;0.50;;
9178;SDS011;4624;48.126;11.546;2022-10-16T05:06:52;1.03;;;0.80;;
9178;SDS011;4624;48.126;11.546;2022-10-16T05:09:19;1.47;;;0.70;;
9178;SDS011;4624;48.126;11.546;2022-10-16T05:11:46;3.13;;;0.70;;
9178;SDS011;4624;48.126;11.546;2022-10-16T05:14:12;1.60;;;0.77;;
9178;SDS011;4624;48.126;11.546;2022-10-16T05:16:39;1.90;;;0.90;;
9178;SDS011;4624;48.126;11.546;2022-10-16T05:19:06;0.60;;;0.60;;
9178;SDS011;4624;48.126;11.546;2022-10-16T05:21:34;1.00;;;0.90;;
9178;SDS011;4624;48.126;11.546;2022-10-16T05:24:00;2.00;;;0.80;;
9178;SDS011;4624;48.126;11.546;2022-10-16T05:26:27;1.13;;;0.73;;
9178;SDS011;4624;48.126;11.546;2022-10-16T05:28:54;0.73;;;0.60;;
9178;SDS011;4624;48.126;11.546;2022-10-16T05:31:21;1.13;;;0.83;;
9178;SDS011;4624;48.126;11.546;2022-10-16T05:33:47;1.47;;;0.90;;
9178;SDS011;4624;48.126;11.546;2022-10-16T05:36:14;0.63;;;0.63;;
9178;SDS011;4624;48.126;11.546;2022-10-16T05:38:42;0.77;;;0.53;;
9178;SDS011;4624;48.126;11.546;2022-10-16T05:41:09;0.60;;;0.60;;
9178;SDS011;4624;48.126;11.546;2022-10-16T05:43:36;2.90;;;0.73;;
9178;SDS011;4624;48.126;11.546;2022-10-16T05:46:03;0.60;;;0.60;;
9178;SDS011;4624;48.126;11.546;2022-10-16T05:48:31;0.97;;;0.83;;
9178;SDS011;4624;48.126;11.546;2022-10-16T05:50:59;0.57;;;0.50;;
9178;SDS011;4624;48.126;11.546;2022-10-16T05:53:27;3.30;;;2.00;;
9178;SDS011;4624;48.126;11.546;2022-10-16T05:55:56;4.60;;;1.30;;
9178;SDS011;4624;48.126;11.546;2022-10-16T05:58:24;1.23;;;1.03;;
9178;SDS011;4624;48.126;11.546;2022-10-16T06:00:54;2.50;;;1.10;;
9178;SDS011;4624;48.126;11.546;2022-10-16T06:03:22;1.30;;;0.87;;
9178;SDS011;4624;48.126;11.546;2022-10-16T06:05:49;0.80;;;0.80;;
9178;SDS011;4624;48.126;11.546;2022-10-16T06:08:16;0.87;;;0.80;;
9178;SDS011;4624;48.126;11.546;2022-10-16T06:10:43;1.07;;;0.77;;
9178;SDS011;4624;48.126;11.546;2022-10-16T06:13:11;3.63;;;1.00;;
9178;SDS011;4624;48.126;11.546;2022-10-16T06:15:38;0.80;;;0.80;;
9178;SDS011;4624;48.126;11.546;2022-10-16T06:18:07;0.90;;;0.80;;
9178;SDS011;4624;48.126;11.546;2022-10-16T06:20:34;1.63;;;0.80;;
9178;SDS011;4624;48.126;11.546;2022-10-16T06:23:01;1.53;;;0.67;;
9178;SDS011;4624;48.126;11.546;2022-10-16T06:25:29;0.70;;;0.70;;
9178;SDS011;4624;48.126;11.546;2022-10-16T06:27:55;0.57;;;0.50;;
9178;SDS011;4624;48.126;11.546;2022-10-16T06:30:24;1.53;;;0.80;;
9178;SDS011;4624;48.126;11.546;2022-10-16T06:32:50;1.03;;;0.80;;
9178;SDS011;4624;48.126;11.546;2022-10-16T06:35:17;0.73;;;0.70;;
9178;SDS011;4624;48.126;11.546;2022-10-16T06:37:44;0.80;;;0.80;;
9178;SDS011;4624;48.126;11.546;2022-10-16T06:40:10;1.53;;;0.97;;
9178;SDS011;4624;48.126;11.546;2022-10-16T06:42:39;1.50;;;0.73;;
9178;SDS011;4624;48.126;11.546;2022-10-16T06:45:06;1.73;;;0.97;;
9178;SDS011;4624;48.126;11.546;2022-10-16T06:47:35;1.53;;;0.80;;
9178;SDS011;4624;48.126;11.546;2022-10-16T06:50:02;0.93;;;0.90;;
9178;SDS011;4624;48.126;11.546;2022-10-16T06:52:31;2.17;;;1.00;;
9178;SDS011;4624;48.126;11.546;2022-10-16T06:54:58;1.67;;;1.00;;
9178;SDS011;4624;48.126;11.546;2022-10-16T06:57:25;3.43;;;0.90;;
9178;SDS011;4624;48.126;11.546;2022-10-16T06:59:52;0.93;;;0.87;;
9178;SDS011;4624;48.126;11.546;2022-10-16T07:02:19;1.00;;;0.87;;
9178;SDS011;4624;48.126;11.546;2022-10-16T07:04:47;0.90;;;0.80;;
9178;SDS011;4624;48.126;11.546;2022-10-16T07:07:13;1.13;;;0.87;;
9178;SDS011;4624;48.126;11.546;2022-10-16T07:09:40;3.10;;;1.07;;
9178;SDS011;4624;48.126;11.546;2022-10-16T07:12:07;2.10;;;0.80;;
9178;SDS011;4624;48.126;11.546;2022-10-16T07:14:34;2.03;;;0.80;;
9178;SDS011;4624;48.126;11.546;2022-10-16T07:17:00;1.33;;;0.70;;
9178;SDS011;4624;48.126;11.546;2022-10-16T07:19:28;1.07;;;0.87;;
9178;SDS011;4624;48.126;11.546;2022-10-16T07:21:56;0.80;;;0.80;;
9178;SDS011;4624;48.126;11.546;2022-10-16T07:24:23;1.90;;;0.70;;
9178;SDS011;4624;48.126;11.546;2022-10-16T07:26:49;0.93;;;0.80;;
9178;SDS011;4624;48.126;11.546;2022-10-16T07:29:17;2.33;;;1.00;;
9178;SDS011;4624;48.126;11.546;2022-10-16T07:31:45;3.23;;;1.00;;
9178;SDS011;4624;48.126;11.546;2022-10-16T07:34:13;1.07;;;0.97;;
9178;SDS011;4624;48.126;11.546;2022-10-16T07:36:41;0.83;;;0.83;;
9178;SDS011;4624;48.126;11.546;2022-10-16T07:39:09;0.82;;;0.80;;
9178;SDS011;4624;48.126;11.546;2022-10-16T07:41:36;2.35;;;1.23;;
9178;SDS011;4624;48.126;11.546;2022-10-16T07:44:03;1.40;;;0.93;;
9178;SDS011;4624;48.126;11.546;2022-10-16T07:46:31;1.88;;;0.90;;
9178;SDS011;4624;48.126;11.546;2022-10-16T07:48:58;1.90;;;1.10;;
9178;SDS011;4624;48.126;11.546;2022-10-16T07:51:25;1.40;;;1.02;;
9178;SDS011;4624;48.126;11.546;2022-10-16T07:53:52;0.85;;;0.70;;
9178;SDS011;4624;48.126;11.546;2022-10-16T07:56:21;1.45;;;0.98;;
9178;SDS011;4624;48.126;11.546;2022-10-16T07:58:48;8.75;;;2.50;;
9178;SDS011;4624;48.126;11.546;2022-10-16T08:01:16;1.55;;;1.35;;
9178;SDS011;4624;48.126;11.546;2022-10-16T08:03:43;1.15;;;0.95;;
9178;SDS011;4624;48.126;11.546;2022-10-16T08:06:11;1.05;;;0.93;;
9178;SDS011;4624;48.126;11.546;2022-10-16T08:08:38;0.95;;;0.90;;
9178;SDS011;4624;48.126;11.546;2022-10-16T08:11:05;1.23;;;0.70;;
9178;SDS011;4624;48.126;11.546;2022-10-16T08:13:33;0.88;;;0.88;;
9178;SDS011;4624;48.126;11.546;2022-10-16T08:16:00;0.80;;;0.80;;
9178;SDS011;4624;48.126;11.546;2022-10-16T08:18:28;0.88;;;0.68;;
9178;SDS011;4624;48.126;11.546;2022-10-16T08:20:55;3.30;;;1.00;;
9178;SDS011;4624;48.126;11.546;2022-10-16T08:23:23;0.90;;;0.80;;
9178;SDS011;4624;48.126;11.546;2022-10-16T08:25:51;3.88;;;0.90;;
9178;SDS011;4624;48.126;11.546;2022-10-16T08:28:18;1.02;;;0.98;;
9178;SDS011;4624;48.126;11.546;2022-10-16T08:30:46;0.82;;;0.73;;
9178;SDS011;4624;48.126;11.546;2022-10-16T08:33:13;2.28;;;0.80;;
9178;SDS011;4624;48.126;11.546;2022-10-16T08:35:40;0.80;;;0.80;;
9178;SDS011;4624;48.126;11.546;2022-10-16T08:38:06;0.85;;;0.85;;
9178;SDS011;4624;48.126;11.546;2022-10-16T08:40:34;0.85;;;0.60;;
9178;SDS011;4624;48.126;11.546;2022-10-16T08:43:06;3.63;;;0.75;;
9178;SDS011;4624;48.126;11.546;2022-10-16T08:45:51;1.02;;;0.70;;
9178;SDS011;4624;48.126;11.546;2022-10-16T08:48:39;2.50;;;1.40;;
9178;SDS011;4624;48.126;11.546;2022-10-16T08:51:11;1.17;;;1.00;;
9178;SDS011;4624;48.126;11.546;2022-10-16T08:53:44;2.80;;;1.00;;
9178;SDS011;4624;48.126;11.546;2022-10-16T08:56:15;2.75;;;0.80;;
9178;SDS011;4624;48.126;11.546;2022-10-16T08:58:44;1.00;;;0.63;;
9178;SDS011;4624;48.126;11.546;2022-10-16T09:01:13;0.93;;;0.80;;
9178;SDS011;4624;48.126;11.546;2022-10-16T09:03:46;2.88;;;0.70;;
9178;SDS011;4624;48.126;11.546;2022-10-16T09:06:36;2.45;;;0.88;;
9178;SDS011;4624;48.126;11.546;2022-10-16T09:09:16;0.60;;;0.60;;
9178;SDS011;4624;48.126;11.546;2022-10-16T09:12:00;1.90;;;1.00;;
9178;SDS011;4624;48.126;11.546;2022-10-16T09:14:40;1.52;;;0.90;;
9178;SDS011;4624;48.126;11.546;2022-10-16T09:17:22;1.98;;;1.30;;
9178;SDS011;4624;48.126;11.546;2022-10-16T09:20:09;2.00;;;1.90;;
9178;SDS011;4624;48.126;11.546;2022-10-16T09:22:45;1.10;;;1.00;;
9178;SDS011;4624;48.126;11.546;2022-10-16T09:25:13;1.75;;;0.80;;
9178;SDS011;4624;48.126;11.546;2022-10-16T09:27:41;1.23;;;1.20;;
9178;SDS011;4624;48.126;11.546;2022-10-16T09:30:11;1.42;;;1.42;;
9178;SDS011;4624;48.126;11.546;2022-10-16T09:32:40;1.20;;;1.10;;
9178;SDS011;4624;48.126;11.546;2022-10-16T09:35:11;1.35;;;1.00;;
9178;SDS011;4624;48.126;11.546;2022-10-16T09:37:41;1.13;;;0.75;;
9178;SDS011;4624;48.126;11.546;2022-10-16T09:40:12;0.77;;;0.77;;
9178;SDS011;4624;48.126;11.546;2022-10-16T09:42:39;0.90;;;0.90;;
9178;SDS011;4624;48.126;11.546;2022-10-16T09:45:18;1.88;;;1.77;;
9178;SDS011;4624;48.126;11.546;2022-10-16T09:47:48;1.40;;;1.05;;
9178;SDS011;4624;48.126;11.546;2022-10-16T09:50:22;2.63;;;1.30;;
9178;SDS011;4624;48.126;11.546;2022-10-16T09:52:51;0.93;;;0.82;;
9178;SDS011;4624;48.126;11.546;2022-10-16T09:55:30;0.75;;;0.70;;
9178;SDS011;4624;48.126;11.546;2022-10-16T09:57:56;2.45;;;0.80;;
9178;SDS011;4624;48.126;11.546;2022-10-16T10:00:24;1.20;;;1.10;;
9178;SDS011;4624;48.126;11.546;2022-10-16T10:02:52;1.50;;;0.88;;
9178;SDS011;4624;48.126;11.546;2022-10-16T10:05:21;0.90;;;0.90;;
9178;SDS011;4624;48.126;11.546;2022-10-16T10:07:53;0.90;;;0.90;;
9178;SDS011;4624;48.126;11.546;2022-10-16T10:10:23;3.28;;;1.10;;
9178;SDS011;4624;48.126;11.546;2022-10-16T10:12:51;1.77;;;1.02;;
9178;SDS011;4624;48.126;11.546;2022-10-16T10:15:18;0.80;;;0.80;;
9178;SDS011;4624;48.126;11.546;2022-10-16T10:17:47;1.13;;;0.98;;
9178;SDS011;4624;48.126;11.546;2022-10-16T10:20:23;1.60;;;1.20;;
9178;SDS011;4624;48.126;11.546;2022-10-16T10:22:52;0.80;;;0.80;;
9178;SDS011;4624;48.126;11.546;2022-10-16T10:25:26;0.95;;;0.60;;
9178;SDS011;4624;48.126;11.546;2022-10-16T10:28:10;0.75;;;0.75;;
9178;SDS011;4624;48.126;11.546;2022-10-16T10:31:01;0.80;;;0.80;;
9178;SDS011;4624;48.126;11.546;2022-10-16T10:33:35;0.70;;;0.70;;
9178;SDS011;4624;48.126;11.546;2022-10-16T10:36:11;2.47;;;0.90;;
9178;SDS011;4624;48.126;11.546;2022-10-16T10:38:49;1.98;;;0.65;;
9178;SDS011;4624;48.126;11.546;2022-10-16T10:41:35;1.30;;;0.88;;
9178;SDS011;4624;48.126;11.546;2022-10-16T10:44:23;0.73;;;0.70;;
9178;SDS011;4624;48.126;11.546;2022-10-16T10:47:01;1.45;;;0.70;;
9178;SDS011;4624;48.126;11.546;2022-10-16T10:49:40;2.90;;;0.80;;
9178;SDS011;4624;48.126;11.546;2022-10-16T10:55:09;1.08;;;0.63;;
9178;SDS011;4624;48.126;11.546;2022-10-16T10:57:45;1.65;;;0.65;;
9178;SDS011;4624;48.126;11.546;2022-10-16T11:00:39;0.57;;;0.57;;
9178;SDS011;4624;48.126;11.546;2022-10-16T11:03:21;1.20;;;1.10;;
9178;SDS011;4624;48.126;11.546;2022-10-16T11:06:00;0.60;;;0.60;;
9178;SDS011;4624;48.126;11.546;2022-10-16T11:08:35;0.50;;;0.50;;
9178;SDS011;4624;48.126;11.546;2022-10-16T11:11:06;0.70;;;0.55;;
9178;SDS011;4624;48.126;11.546;2022-10-16T11:13:37;0.68;;;0.60;;
9178;SDS011;4624;48.126;11.546;2022-10-16T11:16:12;0.40;;;0.40;;
9178;SDS011;4624;48.126;11.546;2022-10-16T11:18:44;1.10;;;0.52;;
9178;SDS011;4624;48.126;11.546;2022-10-16T11:21:17;0.57;;;0.43;;
9178;SDS011;4624;48.126;11.546;2022-10-16T11:23:50;1.88;;;0.40;;
9178;SDS011;4624;48.126;11.546;2022-10-16T11:26:21;0.40;;;0.40;;
9178;SDS011;4624;48.126;11.546;2022-10-16T11:28:51;0.60;;;0.30;;
9178;SDS011;4624;48.126;11.546;2022-10-16T11:31:22;1.05;;;0.52;;
9178;SDS011;4624;48.126;11.546;2022-10-16T11:33:57;0.47;;;0.30;;
9178;SDS011;4624;48.126;11.546;2022-10-16T11:36:31;0.82;;;0.55;;
9178;SDS011;4624;48.126;11.546;2022-10-16T11:39:06;0.30;;;0.30;;
9178;SDS011;4624;48.126;11.546;2022-10-16T11:41:43;0.75;;;0.30;;
9178;SDS011;4624;48.126;11.546;2022-10-16T11:44:16;0.57;;;0.40;;
9178;SDS011;4624;48.126;11.546;2022-10-16T11:46:57;0.80;;;0.50;;
9178;SDS011;4624;48.126;11.546;2022-10-16T11:49:31;0.63;;;0.30;;
9178;SDS011;4624;48.126;11.546;2022-10-16T11:52:00;0.32;;;0.32;;
9178;SDS011;4624;48.126;11.546;2022-10-16T11:54:39;0.30;;;0.30;;
9178;SDS011;4624;48.126;11.546;2022-10-16T11:57:11;0.38;;;0.38;;
9178;SDS011;4624;48.126;11.546;2022-10-16T11:59:42;0.30;;;0.30;;
9178;SDS011;4624;48.126;11.546;2022-10-16T12:05:11;1.20;;;0.40;;
9178;SDS011;4624;48.126;11.546;2022-10-16T12:07:49;0.32;;;0.30;;
9178;SDS011;4624;48.126;11.546;2022-10-16T12:10:25;0.38;;;0.30;;
9178;SDS011;4624;48.126;11.546;2022-10-16T12:12:53;0.30;;;0.30;;
9178;SDS011;4624;48.126;11.546;2022-10-16T12:15:23;4.97;;;0.43;;
9178;SDS011;4624;48.126;11.546;2022-10-16T12:17:51;0.30;;;0.30;;
9178;SDS011;4624;48.126;11.546;2022-10-16T12:20:20;0.30;;;0.30;;
9178;SDS011;4624;48.126;11.546;2022-10-16T12:22:51;0.28;;;0.28;;
9178;SDS011;4624;48.126;11.546;2022-10-16T12:25:21;0.38;;;0.38;;
9178;SDS011;4624;48.126;11.546;2022-10-16T12:27:59;0.30;;;0.30;;
9178;SDS011;4624;48.126;11.546;2022-10-16T12:30:28;0.90;;;0.45;;
9178;SDS011;4624;48.126;11.546;2022-10-16T12:32:57;0.20;;;0.20;;
9178;SDS011;4624;48.126;11.546;2022-10-16T12:35:27;0.40;;;0.20;;
9178;SDS011;4624;48.126;11.546;2022-10-16T12:38:04;1.15;;;0.30;;
9178;SDS011;4624;48.126;11.546;2022-10-16T12:40:35;0.45;;;0.28;;
9178;SDS011;4624;48.126;11.546;2022-10-16T12:43:24;0.82;;;0.40;;
9178;SDS011;4624;48.126;11.546;2022-10-16T12:46:04;0.30;;;0.30;;
9178;SDS011;4624;48.126;11.546;2022-10-16T12:48:46;1.90;;;0.38;;
9178;SDS011;4624;48.126;11.546;2022-10-16T12:51:24;1.40;;;0.50;;
9178;SDS011;4624;48.126;11.546;2022-10-16T12:54:00;0.30;;;0.30;;
9178;SDS011;4624;48.126;11.546;2022-10-16T12:56:32;0.30;;;0.30;;
9178;SDS011;4624;48.126;11.546;2022-10-16T12:59:09;2.80;;;0.40;;
9178;SDS011;4624;48.126;11.546;2022-10-16T13:01:50;1.23;;;0.45;;
9178;SDS011;4624;48.126;11.546;2022-10-16T13:07:28;0.60;;;0.40;;
9178;SDS011;4624;48.126;11.546;2022-10-16T13:10:10;0.80;;;0.50;;
9178;SDS011;4624;48.126;11.546;2022-10-16T13:12:52;1.33;;;0.40;;
9178;SDS011;4624;48.126;11.546;2022-10-16T13:15:41;0.40;;;0.40;;
9178;SDS011;4624;48.126;11.546;2022-10-16T13:18:25;0.50;;;0.50;;
9178;SDS011;4624;48.126;11.546;2022-10-16T13:21:00;0.30;;;0.30;;
9178;SDS011;4624;48.126;11.546;2022-10-16T13:23:40;0.60;;;0.40;;
9178;SDS011;4624;48.126;11.546;2022-10-16T13:26:14;0.40;;;0.40;;
9178;SDS011;4624;48.126;11.546;2022-10-16T13:28:50;0.77;;;0.40;;
9178;SDS011;4624;48.126;11.546;2022-10-16T13:31:18;0.52;;;0.50;;
9178;SDS011;4624;48.126;11.546;2022-10-16T13:33:48;0.50;;;0.40;;
9178;SDS011;4624;48.126;11.546;2022-10-16T13:36:20;2.35;;;0.30;;
9178;SDS011;4624;48.126;11.546;2022-10-16T13:38:48;1.38;;;0.52;;
9178;SDS011;4624;48.126;11.546;2022-10-16T13:41:25;0.40;;;0.40;;
9178;SDS011;4624;48.126;11.546;2022-10-16T13:43:53;1.30;;;0.40;;
9178;SDS011;4624;48.126;11.546;2022-10-16T13:46:22;0.40;;;0.40;;
9178;SDS011;4624;48.126;11.546;2022-10-16T13:48:56;1.95;;;0.40;;
9178;SDS011;4624;48.126;11.546;2022-10-16T13:51:23;0.50;;;0.50;;
9178;SDS011;4624;48.126;11.546;2022-10-16T13:53:50;0.50;;;0.50;;
9178;SDS011;4624;48.126;11.546;2022-10-16T13:56:18;6.65;;;0.60;;
9178;SDS011;4624;48.126;11.546;2022-10-16T13:58:46;2.25;;;0.45;;
9178;SDS011;4624;48.126;11.546;2022-10-16T14:01:25;0.40;;;0.40;;
9178;SDS011;4624;48.126;11.546;2022-10-16T14:03:59;1.30;;;0.40;;
9178;SDS011;4624;48.126;11.546;2022-10-16T14:06:28;4.03;;;0.60;;
9178;SDS011;4624;48.126;11.546;2022-10-16T14:08:57;0.50;;;0.50;;
9178;SDS011;4624;48.126;11.546;2022-10-16T14:11:27;0.40;;;0.40;;
9178;SDS011;4624;48.126;11.546;2022-10-16T14:13:54;0.98;;;0.30;;
9178;SDS011;4624;48.126;11.546;2022-10-16T14:16:22;0.30;;;0.30;;
9178;SDS011;4624;48.126;11.546;2022-10-16T14:18:55;0.25;;;0.25;;
9178;SDS011;4624;48.126;11.546;2022-10-16T14:21:23;0.30;;;0.30;;
9178;SDS011;4624;48.126;11.546;2022-10-16T14:23:51;0.35;;;0.30;;
9178;SDS011;4624;48.126;11.546;2022-10-16T14:26:19;1.15;;;0.22;;
9178;SDS011;4624;48.126;11.546;2022-10-16T14:28:49;0.82;;;0.22;;
9178;SDS011;4624;48.126;11.546;2022-10-16T14:31:30;0.30;;;0.30;;
9178;SDS011;4624;48.126;11.546;2022-10-16T14:33:58;1.00;;;0.30;;
9178;SDS011;4624;48.126;11.546;2022-10-16T14:36:26;0.40;;;0.40;;
9178;SDS011;4624;48.126;11.546;2022-10-16T14:38:56;1.00;;;0.50;;
9178;SDS011;4624;48.126;11.546;2022-10-16T14:41:27;0.38;;;0.38;;
9178;SDS011;4624;48.126;11.546;2022-10-16T14:43:55;0.30;;;0.30;;
9178;SDS011;4624;48.126;11.546;2022-10-16T14:48:54;0.60;;;0.30;;
9178;SDS011;4624;48.126;11.546;2022-10-16T14:51:26;1.10;;;0.20;;
9178;SDS011;4624;48.126;11.546;2022-10-16T14:53:53;1.25;;;0.82;;
9178;SDS011;4624;48.126;11.546;2022-10-16T14:56:21;4.00;;;3.17;;
9178;SDS011;4624;48.126;11.546;2022-10-16T14:58:50;2.42;;;2.22;;
9178;SDS011;4624;48.126;11.546;2022-10-16T15:01:18;3.28;;;2.97;;
9178;SDS011;4624;48.126;11.546;2022-10-16T15:03:45;3.33;;;2.47;;
9178;SDS011;4624;48.126;11.546;2022-10-16T15:06:14;0.80;;;0.80;;
9178;SDS011;4624;48.126;11.546;2022-10-16T15:08:41;0.50;;;0.50;;
9178;SDS011;4624;48.126;11.546;2022-10-16T15:11:09;0.45;;;0.45;;
9178;SDS011;4624;48.126;11.546;2022-10-16T15:13:38;0.70;;;0.50;;
9178;SDS011;4624;48.126;11.546;2022-10-16T15:16:07;0.60;;;0.60;;
9178;SDS011;4624;48.126;11.546;2022-10-16T15:18:36;0.40;;;0.40;;
9178;SDS011;4624;48.126;11.546;2022-10-16T15:21:03;0.43;;;0.43;;
9178;SDS011;4624;48.126;11.546;2022-10-16T15:23:31;0.75;;;0.47;;
9178;SDS011;4624;48.126;11.546;2022-10-16T15:25:58;0.30;;;0.30;;
9178;SDS011;4624;48.126;11.546;2022-10-16T15:28:25;1.45;;;0.40;;
9178;SDS011;4624;48.126;11.546;2022-10-16T15:30:53;0.50;;;0.43;;